sensor_id;sensor_type;location;lat;lon;timestamp;pressure;altitude;pressure_sealevel;temperature;humidity
72370;BME280;60343;-32.030;115.880;2023-06-22T00:01:34;102176.81;;;9.73;85.38
72370;BME280;60343;-32.030;115.880;2023-06-22T00:04:15;102166.81;;;9.96;84.32
72370;BME280;60343;-32.030;115.880;2023-06-22T00:06:50;102181.16;;;9.95;83.43
72370;BME280;60343;-32.030;115.880;2023-06-22T00:09:26;102187.94;;;9.99;84.26
72370;BME280;60343;-32.030;115.880;2023-06-22T00:12:01;102186.25;;;10.07;83.71
72370;BME280;60343;-32.030;115.880;2023-06-22T00:14:37;102186.69;;;10.12;83.13
72370;BME280;60343;-32.030;115.880;2023-06-22T00:17:12;102189.13;;;10.15;83.83
72370;BME280;60343;-32.030;115.880;2023-06-22T00:19:54;102192.53;;;10.17;83.73
72370;BME280;60343;-32.030;115.880;2023-06-22T00:22:32;102203.22;;;10.17;83.81
72370;BME280;60343;-32.030;115.880;2023-06-22T00:25:09;102200.59;;;10.27;83.19
72370;BME280;60343;-32.030;115.880;2023-06-22T00:27:44;102212.56;;;10.32;82.97
72370;BME280;60343;-32.030;115.880;2023-06-22T00:30:20;102213.31;;;10.35;82.76
72370;BME280;60343;-32.030;115.880;2023-06-22T00:32:55;102211.47;;;10.35;82.90
72370;BME280;60343;-32.030;115.880;2023-06-22T00:35:37;102211.91;;;10.40;83.34
72370;BME280;60343;-32.030;115.880;2023-06-22T00:38:12;102213.19;;;10.46;82.47
72370;BME280;60343;-32.030;115.880;2023-06-22T00:40:47;102212.19;;;10.47;82.96
72370;BME280;60343;-32.030;115.880;2023-06-22T00:43:23;102209.50;;;10.47;82.27
72370;BME280;60343;-32.030;115.880;2023-06-22T00:45:58;102211.94;;;10.50;82.60
72370;BME280;60343;-32.030;115.880;2023-06-22T00:48:33;102197.44;;;10.71;81.76
72370;BME280;60343;-32.030;115.880;2023-06-22T00:51:15;102195.63;;;11.30;81.94
72370;BME280;60343;-32.030;115.880;2023-06-22T00:53:52;102204.53;;;12.23;77.27
72370;BME280;60343;-32.030;115.880;2023-06-22T00:56:27;102193.56;;;12.62;75.15
72370;BME280;60343;-32.030;115.880;2023-06-22T00:59:05;102189.06;;;12.62;75.01
72370;BME280;60343;-32.030;115.880;2023-06-22T01:01:41;102192.78;;;12.69;73.65
72370;BME280;60343;-32.030;115.880;2023-06-22T01:04:17;102187.66;;;12.76;74.01
72370;BME280;60343;-32.030;115.880;2023-06-22T01:07:02;102181.00;;;13.15;72.75
72370;BME280;60343;-32.030;115.880;2023-06-22T01:09:47;102187.22;;;13.16;72.54
72370;BME280;60343;-32.030;115.880;2023-06-22T01:12:24;102177.84;;;13.20;73.16
72370;BME280;60343;-32.030;115.880;2023-06-22T01:15:04;102186.56;;;13.65;72.48
72370;BME280;60343;-32.030;115.880;2023-06-22T01:17:44;102187.44;;;13.66;71.34
72370;BME280;60343;-32.030;115.880;2023-06-22T01:20:21;102197.31;;;13.57;71.84
72370;BME280;60343;-32.030;115.880;2023-06-22T01:23:10;102197.47;;;13.38;72.48
72370;BME280;60343;-32.030;115.880;2023-06-22T01:25:48;102192.03;;;13.30;72.94
72370;BME280;60343;-32.030;115.880;2023-06-22T01:28:52;102195.44;;;13.32;73.75
72370;BME280;60343;-32.030;115.880;2023-06-22T01:31:28;102202.41;;;13.25;74.79
72370;BME280;60343;-32.030;115.880;2023-06-22T01:34:06;102200.53;;;13.17;74.61
72370;BME280;60343;-32.030;115.880;2023-06-22T01:36:43;102202.94;;;13.11;75.80
72370;BME280;60343;-32.030;115.880;2023-06-22T01:39:18;102199.41;;;13.10;76.71
72370;BME280;60343;-32.030;115.880;2023-06-22T01:41:55;102197.09;;;12.98;76.36
72370;BME280;60343;-32.030;115.880;2023-06-22T01:44:37;102207.94;;;12.88;76.70
72370;BME280;60343;-32.030;115.880;2023-06-22T01:47:12;102213.41;;;12.96;77.70
72370;BME280;60343;-32.030;115.880;2023-06-22T01:49:49;102196.84;;;13.44;76.38
72370;BME280;60343;-32.030;115.880;2023-06-22T01:52:24;102200.16;;;14.66;72.84
72370;BME280;60343;-32.030;115.880;2023-06-22T01:55:01;102198.16;;;15.89;69.62
72370;BME280;60343;-32.030;115.880;2023-06-22T01:57:37;102182.63;;;16.92;65.67
72370;BME280;60343;-32.030;115.880;2023-06-22T02:00:21;102176.31;;;17.37;61.70
72370;BME280;60343;-32.030;115.880;2023-06-22T02:02:59;102179.50;;;16.80;62.90
72370;BME280;60343;-32.030;115.880;2023-06-22T02:05:38;102179.50;;;16.18;64.13
72370;BME280;60343;-32.030;115.880;2023-06-22T02:08:19;102173.25;;;15.46;67.13
72370;BME280;60343;-32.030;115.880;2023-06-22T02:10:55;102170.56;;;15.22;68.67
72370;BME280;60343;-32.030;115.880;2023-06-22T02:13:33;102177.13;;;15.20;69.65
72370;BME280;60343;-32.030;115.880;2023-06-22T02:16:17;102175.59;;;15.41;68.37
72370;BME280;60343;-32.030;115.880;2023-06-22T02:18:53;102181.19;;;15.56;68.28
72370;BME280;60343;-32.030;115.880;2023-06-22T02:21:30;102185.56;;;15.49;68.13
72370;BME280;60343;-32.030;115.880;2023-06-22T02:24:06;102186.38;;;15.50;68.88
72370;BME280;60343;-32.030;115.880;2023-06-22T02:26:41;102179.31;;;15.57;69.36
72370;BME280;60343;-32.030;115.880;2023-06-22T02:29:17;102185.22;;;15.44;68.64
72370;BME280;60343;-32.030;115.880;2023-06-22T02:31:58;102178.81;;;15.37;70.33
72370;BME280;60343;-32.030;115.880;2023-06-22T02:34:34;102175.28;;;15.28;71.01
72370;BME280;60343;-32.030;115.880;2023-06-22T02:37:10;102176.94;;;15.29;70.89
72370;BME280;60343;-32.030;115.880;2023-06-22T02:39:46;102181.69;;;15.52;70.29
72370;BME280;60343;-32.030;115.880;2023-06-22T02:42:21;102167.75;;;15.95;69.05
72370;BME280;60343;-32.030;115.880;2023-06-22T02:44:56;102178.44;;;16.27;69.15
72370;BME280;60343;-32.030;115.880;2023-06-22T02:47:37;102174.34;;;16.31;68.19
72370;BME280;60343;-32.030;115.880;2023-06-22T02:50:13;102169.16;;;16.22;67.41
72370;BME280;60343;-32.030;115.880;2023-06-22T02:52:48;102167.00;;;16.17;66.96
72370;BME280;60343;-32.030;115.880;2023-06-22T02:55:23;102155.41;;;16.40;67.68
72370;BME280;60343;-32.030;115.880;2023-06-22T02:57:59;102150.03;;;16.85;66.61
72370;BME280;60343;-32.030;115.880;2023-06-22T03:00:34;102147.00;;;16.88;66.33
72370;BME280;60343;-32.030;115.880;2023-06-22T03:03:15;102134.06;;;16.76;66.15
72370;BME280;60343;-32.030;115.880;2023-06-22T03:05:50;102123.06;;;16.77;66.26
72370;BME280;60343;-32.030;115.880;2023-06-22T03:08:26;102124.44;;;16.73;66.01
72370;BME280;60343;-32.030;115.880;2023-06-22T03:11:01;102122.28;;;16.68;66.76
72370;BME280;60343;-32.030;115.880;2023-06-22T03:13:36;102122.00;;;16.63;66.97
72370;BME280;60343;-32.030;115.880;2023-06-22T03:16:13;102113.16;;;16.69;65.75
72370;BME280;60343;-32.030;115.880;2023-06-22T03:18:54;102110.81;;;16.66;66.85
72370;BME280;60343;-32.030;115.880;2023-06-22T03:21:30;102111.72;;;16.59;67.59
72370;BME280;60343;-32.030;115.880;2023-06-22T03:24:06;102099.53;;;16.63;66.74
72370;BME280;60343;-32.030;115.880;2023-06-22T03:26:42;102097.16;;;16.60;66.55
72370;BME280;60343;-32.030;115.880;2023-06-22T03:29:17;102091.66;;;16.45;67.22
72370;BME280;60343;-32.030;115.880;2023-06-22T03:31:53;102070.97;;;16.60;66.10
72370;BME280;60343;-32.030;115.880;2023-06-22T03:34:34;102074.72;;;16.59;66.69
72370;BME280;60343;-32.030;115.880;2023-06-22T03:37:15;102071.63;;;16.62;65.69
72370;BME280;60343;-32.030;115.880;2023-06-22T03:39:50;102081.34;;;16.71;65.43
72370;BME280;60343;-32.030;115.880;2023-06-22T03:42:26;102071.09;;;16.67;67.19
72370;BME280;60343;-32.030;115.880;2023-06-22T03:45:01;102059.91;;;16.70;68.48
72370;BME280;60343;-32.030;115.880;2023-06-22T03:47:37;102057.03;;;16.71;67.35
72370;BME280;60343;-32.030;115.880;2023-06-22T03:50:18;102048.28;;;16.69;68.37
72370;BME280;60343;-32.030;115.880;2023-06-22T03:52:54;102051.25;;;16.52;69.64
72370;BME280;60343;-32.030;115.880;2023-06-22T03:55:29;102042.47;;;16.50;69.57
72370;BME280;60343;-32.030;115.880;2023-06-22T03:58:05;102035.03;;;16.52;70.54
72370;BME280;60343;-32.030;115.880;2023-06-22T04:00:40;102029.31;;;16.47;71.55
72370;BME280;60343;-32.030;115.880;2023-06-22T04:03:15;102020.31;;;16.54;70.72
72370;BME280;60343;-32.030;115.880;2023-06-22T04:05:57;102018.81;;;16.52;70.52
72370;BME280;60343;-32.030;115.880;2023-06-22T04:08:33;102020.09;;;16.56;70.51
72370;BME280;60343;-32.030;115.880;2023-06-22T04:11:08;102008.47;;;16.78;70.39
72370;BME280;60343;-32.030;115.880;2023-06-22T04:13:44;102002.81;;;17.02;67.63
72370;BME280;60343;-32.030;115.880;2023-06-22T04:16:19;102002.53;;;17.27;64.95
72370;BME280;60343;-32.030;115.880;2023-06-22T04:18:54;101995.72;;;17.60;63.81
72370;BME280;60343;-32.030;115.880;2023-06-22T04:21:35;101998.13;;;18.06;58.71
72370;BME280;60343;-32.030;115.880;2023-06-22T04:24:11;101985.28;;;18.14;58.58
72370;BME280;60343;-32.030;115.880;2023-06-22T04:26:46;101980.91;;;18.34;58.23
72370;BME280;60343;-32.030;115.880;2023-06-22T04:29:22;101981.34;;;18.59;57.48
72370;BME280;60343;-32.030;115.880;2023-06-22T04:31:59;101979.81;;;18.78;55.73
72370;BME280;60343;-32.030;115.880;2023-06-22T04:34:34;101983.97;;;18.53;56.03
72370;BME280;60343;-32.030;115.880;2023-06-22T04:37:15;101972.50;;;18.51;56.58
72370;BME280;60343;-32.030;115.880;2023-06-22T04:39:51;101970.34;;;18.46;57.15
72370;BME280;60343;-32.030;115.880;2023-06-22T04:42:27;101967.63;;;18.46;56.39
72370;BME280;60343;-32.030;115.880;2023-06-22T04:45:03;101968.88;;;18.65;55.04
72370;BME280;60343;-32.030;115.880;2023-06-22T04:47:38;101963.69;;;18.70;55.30
72370;BME280;60343;-32.030;115.880;2023-06-22T04:50:13;101947.06;;;18.79;55.07
72370;BME280;60343;-32.030;115.880;2023-06-22T04:52:55;101955.03;;;18.81;56.13
72370;BME280;60343;-32.030;115.880;2023-06-22T04:55:33;101955.69;;;18.62;55.02
72370;BME280;60343;-32.030;115.880;2023-06-22T04:58:13;101952.72;;;18.57;53.57
72370;BME280;60343;-32.030;115.880;2023-06-22T05:00:49;101948.16;;;18.57;54.14
72370;BME280;60343;-32.030;115.880;2023-06-22T05:03:25;101938.00;;;18.66;53.02
72370;BME280;60343;-32.030;115.880;2023-06-22T05:06:01;101928.50;;;18.83;52.20
72370;BME280;60343;-32.030;115.880;2023-06-22T05:08:42;101928.00;;;19.01;52.42
72370;BME280;60343;-32.030;115.880;2023-06-22T05:11:17;101938.88;;;19.01;50.52
72370;BME280;60343;-32.030;115.880;2023-06-22T05:13:52;101926.09;;;19.01;49.93
72370;BME280;60343;-32.030;115.880;2023-06-22T05:16:28;101934.22;;;18.95;52.21
72370;BME280;60343;-32.030;115.880;2023-06-22T05:19:04;101921.16;;;18.77;52.45
72370;BME280;60343;-32.030;115.880;2023-06-22T05:21:40;101926.16;;;18.73;53.32
72370;BME280;60343;-32.030;115.880;2023-06-22T05:24:21;101918.94;;;18.87;53.53
72370;BME280;60343;-32.030;115.880;2023-06-22T05:26:56;101907.53;;;18.98;53.55
72370;BME280;60343;-32.030;115.880;2023-06-22T05:29:31;101911.78;;;19.14;52.41
72370;BME280;60343;-32.030;115.880;2023-06-22T05:32:07;101908.69;;;19.23;52.21
72370;BME280;60343;-32.030;115.880;2023-06-22T05:34:42;101905.81;;;19.38;51.50
72370;BME280;60343;-32.030;115.880;2023-06-22T05:37:18;101904.84;;;19.05;51.24
72370;BME280;60343;-32.030;115.880;2023-06-22T05:39:59;101898.84;;;18.81;53.22
72370;BME280;60343;-32.030;115.880;2023-06-22T05:42:35;101907.22;;;18.80;52.59
72370;BME280;60343;-32.030;115.880;2023-06-22T05:45:10;101900.88;;;19.07;50.73
72370;BME280;60343;-32.030;115.880;2023-06-22T05:47:46;101889.63;;;19.10;51.13
72370;BME280;60343;-32.030;115.880;2023-06-22T05:50:21;101906.06;;;19.02;49.70
72370;BME280;60343;-32.030;115.880;2023-06-22T05:52:56;101908.31;;;18.85;49.55
72370;BME280;60343;-32.030;115.880;2023-06-22T05:55:37;101901.44;;;18.55;50.02
72370;BME280;60343;-32.030;115.880;2023-06-22T05:58:13;101888.19;;;18.46;51.21
72370;BME280;60343;-32.030;115.880;2023-06-22T06:00:48;101897.38;;;18.23;53.29
72370;BME280;60343;-32.030;115.880;2023-06-22T06:03:23;101889.38;;;18.64;53.71
72370;BME280;60343;-32.030;115.880;2023-06-22T06:05:59;101888.22;;;18.80;54.13
72370;BME280;60343;-32.030;115.880;2023-06-22T06:08:34;101874.81;;;18.72;54.34
72370;BME280;60343;-32.030;115.880;2023-06-22T06:11:15;101872.75;;;18.74;55.19
72370;BME280;60343;-32.030;115.880;2023-06-22T06:13:51;101870.84;;;18.40;56.92
72370;BME280;60343;-32.030;115.880;2023-06-22T06:16:26;101863.84;;;18.31;57.28
72370;BME280;60343;-32.030;115.880;2023-06-22T06:19:01;101860.34;;;18.30;57.22
72370;BME280;60343;-32.030;115.880;2023-06-22T06:21:37;101860.09;;;18.25;57.64
72370;BME280;60343;-32.030;115.880;2023-06-22T06:24:12;101862.03;;;18.38;54.13
72370;BME280;60343;-32.030;115.880;2023-06-22T06:26:54;101863.47;;;18.34;55.53
72370;BME280;60343;-32.030;115.880;2023-06-22T06:29:32;101865.16;;;18.35;53.75
72370;BME280;60343;-32.030;115.880;2023-06-22T06:32:08;101855.19;;;18.42;54.15
72370;BME280;60343;-32.030;115.880;2023-06-22T06:34:43;101855.44;;;18.47;54.20
72370;BME280;60343;-32.030;115.880;2023-06-22T06:37:19;101851.25;;;18.44;52.10
72370;BME280;60343;-32.030;115.880;2023-06-22T06:39:54;101851.19;;;18.38;53.85
72370;BME280;60343;-32.030;115.880;2023-06-22T06:42:35;101853.81;;;18.25;53.55
72370;BME280;60343;-32.030;115.880;2023-06-22T06:45:14;101856.91;;;17.94;56.04
72370;BME280;60343;-32.030;115.880;2023-06-22T06:47:50;101867.09;;;17.92;57.83
72370;BME280;60343;-32.030;115.880;2023-06-22T06:50:26;101861.75;;;17.77;58.33
72370;BME280;60343;-32.030;115.880;2023-06-22T06:53:01;101864.97;;;17.66;59.56
72370;BME280;60343;-32.030;115.880;2023-06-22T06:55:36;101865.81;;;17.52;61.26
72370;BME280;60343;-32.030;115.880;2023-06-22T06:58:19;101867.66;;;17.45;61.73
72370;BME280;60343;-32.030;115.880;2023-06-22T07:00:54;101863.34;;;17.36;61.88
72370;BME280;60343;-32.030;115.880;2023-06-22T07:03:30;101866.91;;;17.36;63.92
72370;BME280;60343;-32.030;115.880;2023-06-22T07:06:05;101856.50;;;17.19;64.95
72370;BME280;60343;-32.030;115.880;2023-06-22T07:08:41;101854.41;;;16.99;64.83
72370;BME280;60343;-32.030;115.880;2023-06-22T07:11:16;101847.50;;;16.82;65.36
72370;BME280;60343;-32.030;115.880;2023-06-22T07:13:57;101847.31;;;16.84;66.77
72370;BME280;60343;-32.030;115.880;2023-06-22T07:16:32;101846.66;;;16.82;68.67
72370;BME280;60343;-32.030;115.880;2023-06-22T07:19:11;101829.88;;;16.71;69.46
72370;BME280;60343;-32.030;115.880;2023-06-22T07:21:46;101831.94;;;16.84;70.19
72370;BME280;60343;-32.030;115.880;2023-06-22T07:24:22;101830.88;;;16.85;68.60
72370;BME280;60343;-32.030;115.880;2023-06-22T07:26:57;101824.53;;;17.07;67.78
72370;BME280;60343;-32.030;115.880;2023-06-22T07:29:40;101823.31;;;16.95;68.64
72370;BME280;60343;-32.030;115.880;2023-06-22T07:32:15;101818.09;;;17.08;68.69
72370;BME280;60343;-32.030;115.880;2023-06-22T07:34:50;101812.75;;;17.00;69.33
72370;BME280;60343;-32.030;115.880;2023-06-22T07:37:26;101807.88;;;17.10;68.66
72370;BME280;60343;-32.030;115.880;2023-06-22T07:40:03;101805.09;;;17.19;69.24
72370;BME280;60343;-32.030;115.880;2023-06-22T07:42:38;101804.97;;;17.27;69.09
72370;BME280;60343;-32.030;115.880;2023-06-22T07:45:21;101808.78;;;17.32;68.40
72370;BME280;60343;-32.030;115.880;2023-06-22T07:47:57;101806.81;;;17.26;68.48
72370;BME280;60343;-32.030;115.880;2023-06-22T07:50:32;101816.22;;;17.09;70.34
72370;BME280;60343;-32.030;115.880;2023-06-22T07:53:07;101826.81;;;16.89;72.91
72370;BME280;60343;-32.030;115.880;2023-06-22T07:55:44;101829.47;;;16.45;76.14
72370;BME280;60343;-32.030;115.880;2023-06-22T07:58:19;101832.13;;;16.01;79.30
72370;BME280;60343;-32.030;115.880;2023-06-22T08:01:00;101819.97;;;15.60;83.06
72370;BME280;60343;-32.030;115.880;2023-06-22T08:03:35;101822.69;;;15.60;84.87
72370;BME280;60343;-32.030;115.880;2023-06-22T08:06:11;101823.44;;;15.54;84.68
72370;BME280;60343;-32.030;115.880;2023-06-22T08:08:46;101812.34;;;15.40;87.01
72370;BME280;60343;-32.030;115.880;2023-06-22T08:11:24;101803.22;;;15.41;87.36
72370;BME280;60343;-32.030;115.880;2023-06-22T08:14:00;101809.47;;;15.42;88.05
72370;BME280;60343;-32.030;115.880;2023-06-22T08:16:42;101796.16;;;15.40;88.10
72370;BME280;60343;-32.030;115.880;2023-06-22T08:19:17;101797.81;;;15.41;89.48
72370;BME280;60343;-32.030;115.880;2023-06-22T08:21:52;101802.16;;;15.51;88.64
72370;BME280;60343;-32.030;115.880;2023-06-22T08:24:28;101801.16;;;15.52;88.11
72370;BME280;60343;-32.030;115.880;2023-06-22T08:27:04;101801.47;;;15.57;88.20
72370;BME280;60343;-32.030;115.880;2023-06-22T08:29:44;101785.59;;;15.76;86.44
72370;BME280;60343;-32.030;115.880;2023-06-22T08:32:30;101789.22;;;15.69;86.51
72370;BME280;60343;-32.030;115.880;2023-06-22T08:35:07;101784.63;;;15.69;86.43
72370;BME280;60343;-32.030;115.880;2023-06-22T08:37:43;101782.22;;;15.74;85.22
72370;BME280;60343;-32.030;115.880;2023-06-22T08:40:20;101773.38;;;15.66;85.79
72370;BME280;60343;-32.030;115.880;2023-06-22T08:42:57;101769.91;;;15.57;85.34
72370;BME280;60343;-32.030;115.880;2023-06-22T08:45:32;101764.72;;;15.48;85.18
72370;BME280;60343;-32.030;115.880;2023-06-22T08:48:13;101765.91;;;15.45;85.96
72370;BME280;60343;-32.030;115.880;2023-06-22T08:50:49;101764.91;;;15.46;85.10
72370;BME280;60343;-32.030;115.880;2023-06-22T08:53:24;101768.81;;;15.43;84.75
72370;BME280;60343;-32.030;115.880;2023-06-22T08:55:59;101765.06;;;15.44;84.45
72370;BME280;60343;-32.030;115.880;2023-06-22T08:58:35;101753.28;;;15.45;83.63
72370;BME280;60343;-32.030;115.880;2023-06-22T09:01:10;101756.88;;;15.38;83.84
72370;BME280;60343;-32.030;115.880;2023-06-22T09:03:51;101755.66;;;15.40;82.97
72370;BME280;60343;-32.030;115.880;2023-06-22T09:06:28;101759.75;;;15.36;83.65
72370;BME280;60343;-32.030;115.880;2023-06-22T09:09:09;101752.34;;;15.38;84.76
72370;BME280;60343;-32.030;115.880;2023-06-22T09:11:44;101749.16;;;15.58;82.66
72370;BME280;60343;-32.030;115.880;2023-06-22T09:14:19;101749.16;;;15.58;77.18
72370;BME280;60343;-32.030;115.880;2023-06-22T09:16:55;101748.44;;;15.64;73.12
72370;BME280;60343;-32.030;115.880;2023-06-22T09:19:36;101738.13;;;15.82;70.56
72370;BME280;60343;-32.030;115.880;2023-06-22T09:22:11;101738.69;;;15.77;70.25
72370;BME280;60343;-32.030;115.880;2023-06-22T09:24:47;101731.56;;;15.62;71.72
72370;BME280;60343;-32.030;115.880;2023-06-22T09:27:22;101733.63;;;15.74;70.40
72370;BME280;60343;-32.030;115.880;2023-06-22T09:29:57;101727.13;;;15.69;71.09
72370;BME280;60343;-32.030;115.880;2023-06-22T09:32:32;101722.38;;;15.71;71.06
72370;BME280;60343;-32.030;115.880;2023-06-22T09:35:14;101715.88;;;15.80;70.35
72370;BME280;60343;-32.030;115.880;2023-06-22T09:37:49;101711.81;;;15.84;70.76
72370;BME280;60343;-32.030;115.880;2023-06-22T09:40:24;101731.19;;;16.02;70.29
72370;BME280;60343;-32.030;115.880;2023-06-22T09:43:00;101735.75;;;16.02;72.66
72370;BME280;60343;-32.030;115.880;2023-06-22T09:45:36;101732.34;;;15.85;76.18
72370;BME280;60343;-32.030;115.880;2023-06-22T09:48:11;101724.34;;;15.77;76.70
72370;BME280;60343;-32.030;115.880;2023-06-22T09:50:52;101717.13;;;15.55;78.91
72370;BME280;60343;-32.030;115.880;2023-06-22T09:53:27;101706.56;;;15.45;79.67
72370;BME280;60343;-32.030;115.880;2023-06-22T09:56:03;101704.41;;;15.40;80.42
72370;BME280;60343;-32.030;115.880;2023-06-22T09:58:43;101702.50;;;15.26;80.97
72370;BME280;60343;-32.030;115.880;2023-06-22T10:01:20;101695.56;;;15.32;80.99
72370;BME280;60343;-32.030;115.880;2023-06-22T10:03:57;101698.00;;;15.41;80.56
72370;BME280;60343;-32.030;115.880;2023-06-22T10:06:38;101688.31;;;15.70;78.64
72370;BME280;60343;-32.030;115.880;2023-06-22T10:09:14;101687.22;;;15.79;78.05
72370;BME280;60343;-32.030;115.880;2023-06-22T10:11:49;101684.31;;;15.80;77.61
72370;BME280;60343;-32.030;115.880;2023-06-22T10:14:24;101685.91;;;15.89;76.72
72370;BME280;60343;-32.030;115.880;2023-06-22T10:17:00;101670.19;;;15.93;75.72
72370;BME280;60343;-32.030;115.880;2023-06-22T10:19:35;101682.28;;;15.97;74.64
72370;BME280;60343;-32.030;115.880;2023-06-22T10:22:22;101696.91;;;16.03;74.71
72370;BME280;60343;-32.030;115.880;2023-06-22T10:24:57;101690.84;;;16.01;74.42
72370;BME280;60343;-32.030;115.880;2023-06-22T10:27:32;101697.00;;;16.09;73.14
72370;BME280;60343;-32.030;115.880;2023-06-22T10:30:09;101694.47;;;16.22;72.18
72370;BME280;60343;-32.030;115.880;2023-06-22T10:32:44;101698.09;;;16.15;72.12
72370;BME280;60343;-32.030;115.880;2023-06-22T10:35:20;101697.34;;;16.21;71.92
72370;BME280;60343;-32.030;115.880;2023-06-22T10:38:01;101693.81;;;16.20;71.29
72370;BME280;60343;-32.030;115.880;2023-06-22T10:40:36;101688.31;;;16.28;71.49
72370;BME280;60343;-32.030;115.880;2023-06-22T10:43:12;101691.47;;;16.32;71.11
72370;BME280;60343;-32.030;115.880;2023-06-22T10:45:47;101684.88;;;16.35;71.56
72370;BME280;60343;-32.030;115.880;2023-06-22T10:48:23;101686.50;;;16.50;71.28
72370;BME280;60343;-32.030;115.880;2023-06-22T10:50:58;101687.63;;;16.41;73.94
72370;BME280;60343;-32.030;115.880;2023-06-22T10:53:39;101686.22;;;16.60;73.71
72370;BME280;60343;-32.030;115.880;2023-06-22T10:56:15;101690.81;;;16.59;74.50
72370;BME280;60343;-32.030;115.880;2023-06-22T10:58:51;101678.22;;;16.52;73.81
72370;BME280;60343;-32.030;115.880;2023-06-22T11:01:26;101679.88;;;16.53;73.43
72370;BME280;60343;-32.030;115.880;2023-06-22T11:04:01;101679.19;;;16.44;73.65
72370;BME280;60343;-32.030;115.880;2023-06-22T11:06:37;101699.94;;;16.44;75.65
72370;BME280;60343;-32.030;115.880;2023-06-22T11:09:18;101686.66;;;15.98;81.01
72370;BME280;60343;-32.030;115.880;2023-06-22T11:11:55;101697.47;;;15.98;81.11
72370;BME280;60343;-32.030;115.880;2023-06-22T11:14:30;101709.63;;;15.79;81.83
72370;BME280;60343;-32.030;115.880;2023-06-22T11:17:06;101707.97;;;15.78;83.34
72370;BME280;60343;-32.030;115.880;2023-06-22T11:19:41;101713.53;;;15.62;85.05
72370;BME280;60343;-32.030;115.880;2023-06-22T11:22:17;101699.97;;;15.48;85.66
72370;BME280;60343;-32.030;115.880;2023-06-22T11:24:58;101690.63;;;15.35;86.97
72370;BME280;60343;-32.030;115.880;2023-06-22T11:27:33;101684.00;;;15.23;88.08
72370;BME280;60343;-32.030;115.880;2023-06-22T11:30:09;101699.97;;;15.25;87.98
72370;BME280;60343;-32.030;115.880;2023-06-22T11:32:45;101691.34;;;15.29;88.33
72370;BME280;60343;-32.030;115.880;2023-06-22T11:35:20;101680.25;;;15.24;89.56
72370;BME280;60343;-32.030;115.880;2023-06-22T11:37:55;101671.47;;;15.08;90.83
72370;BME280;60343;-32.030;115.880;2023-06-22T11:40:37;101684.59;;;15.11;90.45
72370;BME280;60343;-32.030;115.880;2023-06-22T11:43:12;101672.06;;;15.18;90.94
72370;BME280;60343;-32.030;115.880;2023-06-22T11:45:48;101679.25;;;15.25;90.67
72370;BME280;60343;-32.030;115.880;2023-06-22T11:48:23;101669.03;;;15.35;90.02
72370;BME280;60343;-32.030;115.880;2023-06-22T11:50:59;101666.72;;;15.32;89.93
72370;BME280;60343;-32.030;115.880;2023-06-22T11:53:35;101669.44;;;15.47;89.83
72370;BME280;60343;-32.030;115.880;2023-06-22T11:56:17;101664.72;;;15.49;90.14
72370;BME280;60343;-32.030;115.880;2023-06-22T11:58:53;101684.00;;;15.61;89.48
72370;BME280;60343;-32.030;115.880;2023-06-22T12:01:29;101683.66;;;15.64;88.52
72370;BME280;60343;-32.030;115.880;2023-06-22T12:04:04;101670.06;;;15.34;89.96
72370;BME280;60343;-32.030;115.880;2023-06-22T12:06:40;101676.19;;;15.28;91.73
72370;BME280;60343;-32.030;115.880;2023-06-22T12:09:15;101681.06;;;15.10;93.95
72370;BME280;60343;-32.030;115.880;2023-06-22T12:11:56;101703.13;;;15.14;94.09
72370;BME280;60343;-32.030;115.880;2023-06-22T12:14:32;101702.63;;;15.10;94.33
72370;BME280;60343;-32.030;115.880;2023-06-22T12:17:07;101697.94;;;15.04;94.15
72370;BME280;60343;-32.030;115.880;2023-06-22T12:19:42;101704.56;;;15.01;94.59
72370;BME280;60343;-32.030;115.880;2023-06-22T12:22:18;101698.44;;;14.85;94.62
72370;BME280;60343;-32.030;115.880;2023-06-22T12:24:53;101682.00;;;14.94;95.05
72370;BME280;60343;-32.030;115.880;2023-06-22T12:27:34;101682.84;;;14.95;95.51
72370;BME280;60343;-32.030;115.880;2023-06-22T12:30:10;101676.16;;;14.91;94.96
72370;BME280;60343;-32.030;115.880;2023-06-22T12:32:45;101678.47;;;14.94;95.03
72370;BME280;60343;-32.030;115.880;2023-06-22T12:35:20;101680.88;;;14.89;94.82
72370;BME280;60343;-32.030;115.880;2023-06-22T12:37:55;101676.53;;;14.88;95.94
72370;BME280;60343;-32.030;115.880;2023-06-22T12:40:31;101677.53;;;14.87;95.89
72370;BME280;60343;-32.030;115.880;2023-06-22T12:43:12;101675.69;;;14.87;95.32
72370;BME280;60343;-32.030;115.880;2023-06-22T12:45:47;101681.91;;;14.88;95.46
72370;BME280;60343;-32.030;115.880;2023-06-22T12:48:25;101693.00;;;14.93;95.36
72370;BME280;60343;-32.030;115.880;2023-06-22T12:51:00;101692.47;;;14.97;95.64
72370;BME280;60343;-32.030;115.880;2023-06-22T12:53:37;101690.06;;;15.02;95.45
72370;BME280;60343;-32.030;115.880;2023-06-22T12:56:12;101692.94;;;15.01;94.50
72370;BME280;60343;-32.030;115.880;2023-06-22T12:58:54;101703.25;;;14.97;92.94
72370;BME280;60343;-32.030;115.880;2023-06-22T13:01:29;101688.66;;;14.84;92.95
72370;BME280;60343;-32.030;115.880;2023-06-22T13:04:04;101690.22;;;14.78;92.68
72370;BME280;60343;-32.030;115.880;2023-06-22T13:06:42;101691.94;;;14.71;92.72
72370;BME280;60343;-32.030;115.880;2023-06-22T13:09:19;101689.78;;;14.67;92.74